Time,TemperatureF,DewpointF,PressureIn,WindDirection,WindDirectionDegrees,WindSpeedMPH,WindSpeedGustMPH,Humidity,HourlyPrecipIn,Conditions,Clouds,dailyrainin,SolarRadiationWatts/m^2,SoftwareType,DateUTC
2013-06-11 00:00:00,49.2,46.7,30.15,NE,53,0.0,2.0,91,0.00,,---,0.00,0.00,VWS V14.00,2013-06-11 04:00:00,
2013-06-11 00:01:00,56.6,53.4,29.88,East,85,17.0,24.0,89,0.09,,---,0.21,0.00,VWS V14.00,2013-06-11 04:01:00,
2013-06-11 00:02:00,56.6,53.4,29.88,SE,132,10.0,24.0,89,0.10,,---,0.22,0.00,VWS V14.00,2013-06-11 04:02:00,
2013-06-11 00:07:00,56.6,53.4,29.88,South,171,5.0,27.0,89,0.11,,---,0.23,0.00,VWS V14.00,2013-06-11 04:07:00,
2013-06-11 00:12:00,56.5,53.3,29.88,East,82,15.0,27.0,89,0.11,,---,0.23,0.00,VWS V14.00,2013-06-11 04:12:00,
2013-06-11 00:17:00,56.4,53.5,29.87,ESE,109,21.0,21.0,90,0.09,,---,0.23,0.00,VWS V14.00,2013-06-11 04:17:00,
2013-06-11 00:22:00,56.3,53.4,29.88,East,99,17.0,23.0,90,0.10,,---,0.24,0.00,VWS V14.00,2013-06-11 04:22:00,
2013-06-11 00:27:00,56.2,53.3,29.87,ENE,76,21.0,23.0,90,0.10,,---,0.24,0.00,VWS V14.00,2013-06-11 04:27:00,
2013-06-11 00:30:00,49.2,47.0,30.15,NE,53,0.0,0.0,92,0.00,,---,0.00,0.00,VWS V14.00,2013-06-11 04:30:00,
2013-06-11 00:32:00,56.1,53.2,29.87,ESE,106,16.0,25.0,90,0.11,,---,0.25,0.00,VWS V14.00,2013-06-11 04:32:00,
2013-06-11 00:37:00,56.0,53.1,29.87,East,99,14.0,27.0,90,0.11,,---,0.25,0.00,VWS V14.00,2013-06-11 04:37:00,
2013-06-11 00:42:00,56.0,53.1,29.86,ENE,57,21.0,27.0,90,0.11,,---,0.25,0.00,VWS V14.00,2013-06-11 04:42:00,
2013-06-11 00:47:00,56.0,52.8,29.85,ENE,58,13.0,30.0,89,0.05,,---,0.25,0.00,VWS V14.00,2013-06-11 04:47:00,
2013-06-11 00:52:00,56.0,52.8,29.85,ENE,77,17.0,30.0,89,0.05,,---,0.25,0.00,VWS V14.00,2013-06-11 04:52:00,
2013-06-11 00:57:00,55.9,52.7,29.85,ESE,122,11.0,30.0,89,0.05,,---,0.25,0.00,VWS V14.00,2013-06-11 04:57:00,
2013-06-11 01:00:00,48.5,46.3,30.15,NE,53,0.0,2.0,92,0.00,,---,0.00,0.00,VWS V14.00,2013-06-11 05:00:00,
2013-06-11 01:02:00,55.8,52.6,29.85,East,89,10.0,30.0,89,0.05,,---,0.25,0.00,VWS V14.00,2013-06-11 05:02:00,
2013-06-11 01:07:00,55.7,52.8,29.84,East,82,23.0,30.0,90,0.05,,---,0.25,0.00,VWS V14.00,2013-06-11 05:07:00,
2013-06-11 01:12:00,55.7,52.8,29.84,NE,53,12.0,30.0,90,0.05,,---,0.25,0.00,VWS V14.00,2013-06-11 05:12:00,
2013-06-11 01:17:00,55.7,52.8,29.84,ESE,109,17.0,30.0,90,0.02,,---,0.25,0.00,VWS V14.00,2013-06-11 05:17:00,
2013-06-11 01:22:00,55.6,52.7,29.83,ESE,106,12.0,30.0,90,0.02,,---,0.25,0.00,VWS V14.00,2013-06-11 05:22:00,
2013-06-11 01:27:00,55.6,52.7,29.83,East,85,16.0,30.0,90,0.02,,---,0.25,0.00,VWS V14.00,2013-06-11 05:27:00,
2013-06-11 01:30:00,48.7,46.5,30.15,NE,53,0.0,2.0,92,0.00,,---,0.00,0.00,VWS V14.00,2013-06-11 05:30:00,
2013-06-11 01:32:00,55.6,52.7,29.83,East,80,19.0,31.0,90,0.02,,---,0.25,0.00,VWS V14.00,2013-06-11 05:32:00,
2013-06-11 01:37:00,55.5,52.6,29.83,ESE,113,9.0,31.0,90,0.02,,---,0.25,0.00,VWS V14.00,2013-06-11 05:37:00,
2013-06-11 01:42:00,55.4,52.5,29.82,SE,146,11.0,31.0,90,0.03,,---,0.26,0.00,VWS V14.00,2013-06-11 05:42:00,
2013-06-11 01:47:00,55.3,52.4,29.82,East,91,17.0,24.0,90,0.01,,---,0.26,0.00,VWS V14.00,2013-06-11 05:47:00,
2013-06-11 01:52:00,55.3,52.4,29.81,East,83,13.0,24.0,90,0.02,,---,0.27,0.00,VWS V14.00,2013-06-11 05:52:00,
2013-06-11 01:57:00,55.3,52.4,29.81,ESE,109,17.0,26.0,90,0.02,,---,0.27,0.00,VWS V14.00,2013-06-11 05:57:00,
2013-06-11 02:00:00,48.5,46.3,30.15,NE,53,0.0,2.0,92,0.00,,---,0.00,0.00,VWS V14.00,2013-06-11 06:00:00,
2013-06-11 02:02:00,55.3,52.4,29.80,East,88,17.0,26.0,90,0.03,,---,0.28,0.00,VWS V14.00,2013-06-11 06:02:00,
2013-06-11 02:07:00,55.3,52.4,29.80,ESE,105,21.0,26.0,90,0.04,,---,0.29,0.00,VWS V14.00,2013-06-11 06:07:00,
2013-06-11 02:12:00,55.3,52.4,29.79,East,98,20.0,28.0,90,0.04,,---,0.29,0.00,VWS V14.00,2013-06-11 06:12:00,
2013-06-11 02:17:00,55.2,52.3,29.79,ESE,106,10.0,28.0,90,0.06,,---,0.01,0.00,VWS V14.00,2013-06-11 06:17:00,
2013-06-11 02:22:00,55.2,52.3,29.79,East,92,23.0,30.0,90,0.06,,---,0.01,0.00,VWS V14.00,2013-06-11 06:22:00,
2013-06-11 02:27:00,55.2,52.3,29.79,East,90,14.0,35.0,90,0.06,,---,0.01,0.00,VWS V14.00,2013-06-11 06:27:00,
2013-06-11 02:30:00,48.5,46.6,30.15,NE,53,0.0,1.0,93,0.00,,---,0.00,0.00,VWS V14.00,2013-06-11 06:30:00,
2013-06-11 02:32:00,55.2,52.3,29.78,ESE,119,18.0,35.0,90,0.06,,---,0.01,0.00,VWS V14.00,2013-06-11 06:32:00,
2013-06-11 02:37:00,55.2,52.3,29.79,East,87,17.0,35.0,90,0.06,,---,0.01,0.00,VWS V14.00,2013-06-11 06:37:00,
2013-06-11 02:42:00,55.2,52.3,29.78,ESE,109,17.0,35.0,90,0.06,,---,0.01,0.00,VWS V14.00,2013-06-11 06:42:00,
2013-06-11 02:47:00,55.2,52.3,29.78,ENE,63,12.0,24.0,90,0.06,,---,0.02,0.00,VWS V14.00,2013-06-11 06:47:00,
2013-06-11 02:52:00,55.1,52.2,29.79,East,96,14.0,24.0,90,0.08,,---,0.04,0.00,VWS V14.00,2013-06-11 06:52:00,
2013-06-11 02:58:00,55.1,52.2,29.79,East,97,11.0,24.0,90,0.10,,---,0.06,0.00,VWS V14.00,2013-06-11 06:58:00,
2013-06-11 03:00:00,48.7,46.8,30.15,NE,53,0.0,1.0,93,0.00,,---,0.00,0.00,VWS V14.00,2013-06-11 07:00:00,
2013-06-11 03:03:00,55.0,52.1,29.79,SE,138,6.0,24.0,90,0.12,,---,0.08,0.00,VWS V14.00,2013-06-11 07:03:00,
2013-06-11 03:08:00,54.9,52.0,29.79,ESE,109,14.0,24.0,90,0.15,,---,0.11,0.00,VWS V14.00,2013-06-11 07:08:00,
2013-06-11 03:13:00,54.9,52.0,29.79,ESE,121,3.0,24.0,90,0.17,,---,0.13,0.00,VWS V14.00,2013-06-11 07:13:00,
2013-06-11 03:18:00,54.9,52.0,29.77,ENE,76,14.0,22.0,90,0.16,,---,0.16,0.00,VWS V14.00,2013-06-11 07:18:00,
2013-06-11 03:23:00,54.9,52.0,29.77,ESE,120,12.0,23.0,90,0.17,,---,0.17,0.00,VWS V14.00,2013-06-11 07:23:00,
2013-06-11 03:28:00,55.0,52.1,29.78,East,97,16.0,26.0,90,0.17,,---,0.17,0.00,VWS V14.00,2013-06-11 07:28:00,
2013-06-11 03:30:00,48.5,46.6,30.16,WNW,301,0.0,2.0,93,0.00,,---,0.00,25.00,VWS V14.00,2013-06-11 07:30:00,
2013-06-11 03:33:00,55.0,52.1,29.77,East,88,15.0,28.0,90,0.19,,---,0.19,0.00,VWS V14.00,2013-06-11 07:33:00,
2013-06-11 03:38:00,55.0,52.1,29.76,East,95,18.0,28.0,90,0.19,,---,0.19,0.00,VWS V14.00,2013-06-11 07:38:00,
2013-06-11 03:43:00,54.9,52.0,29.76,East,101,19.0,28.0,90,0.20,,---,0.20,0.00,VWS V14.00,2013-06-11 07:43:00,
2013-06-11 03:48:00,55.0,52.1,29.76,ESE,122,14.0,18.0,90,0.19,,---,0.20,0.00,VWS V14.00,2013-06-11 07:48:00,
2013-06-11 03:53:00,54.9,52.0,29.76,ENE,76,16.0,22.0,90,0.20,,---,0.21,0.00,VWS V14.00,2013-06-11 07:53:00,
2013-06-11 03:58:00,54.9,52.0,29.76,East,92,15.0,28.0,90,0.20,,---,0.21,0.00,VWS V14.00,2013-06-11 07:58:00,
2013-06-11 04:00:00,49.1,47.2,30.16,WNW,301,0.0,1.0,93,0.00,,---,0.00,47.00,VWS V14.00,2013-06-11 08:00:00,
2013-06-11 04:03:00,54.9,52.0,29.76,ENE,67,23.0,28.0,90,0.20,,---,0.21,0.00,VWS V14.00,2013-06-11 08:03:00,
2013-06-11 04:08:00,54.8,51.9,29.75,East,91,13.0,28.0,90,0.20,,---,0.21,0.00,VWS V14.00,2013-06-11 08:08:00,
2013-06-11 04:13:00,54.8,51.9,29.75,East,100,11.0,28.0,90,0.20,,---,0.21,0.00,VWS V14.00,2013-06-11 08:13:00,
2013-06-11 04:18:00,54.8,51.9,29.75,ESE,102,16.0,24.0,90,0.08,,---,0.21,0.00,VWS V14.00,2013-06-11 08:18:00,
2013-06-11 04:23:00,54.7,51.8,29.75,ESE,109,15.0,24.0,90,0.08,,---,0.21,0.00,VWS V14.00,2013-06-11 08:23:00,
2013-06-11 04:28:00,54.7,51.8,29.74,East,92,18.0,24.0,90,0.09,,---,0.22,0.00,VWS V14.00,2013-06-11 08:28:00,
2013-06-11 04:30:00,50.0,48.1,30.16,WNW,301,0.0,1.0,93,0.00,,---,0.00,100.00,VWS V14.00,2013-06-11 08:30:00,
2013-06-11 04:33:00,54.7,51.8,29.74,ESE,106,20.0,27.0,90,0.09,,---,0.22,0.00,VWS V14.00,2013-06-11 08:33:00,
2013-06-11 04:38:00,54.6,51.7,29.74,SE,137,18.0,28.0,90,0.10,,---,0.23,0.00,VWS V14.00,2013-06-11 08:38:00,
2013-06-11 04:43:00,54.6,51.7,29.74,East,100,13.0,28.0,90,0.10,,---,0.23,0.00,VWS V14.00,2013-06-11 08:43:00,
2013-06-11 04:48:00,54.7,51.8,29.73,SE,125,8.0,24.0,90,0.04,,---,0.24,0.00,VWS V14.00,2013-06-11 08:48:00,
2013-06-11 04:53:00,54.6,51.7,29.73,East,96,14.0,24.0,90,0.07,,---,0.27,0.00,VWS V14.00,2013-06-11 08:53:00,
2013-06-11 04:58:00,54.6,51.7,29.73,East,86,19.0,28.0,90,0.08,,---,0.28,0.00,VWS V14.00,2013-06-11 08:58:00,
2013-06-11 05:00:00,53.2,51.5,30.15,WNW,301,0.0,2.0,94,0.00,,---,0.00,176.00,VWS V14.00,2013-06-11 09:00:00,
2013-06-11 05:03:00,54.7,51.5,29.72,ESE,105,17.0,28.0,89,0.09,,---,0.29,0.00,VWS V14.00,2013-06-11 09:03:00,
2013-06-11 05:08:00,54.7,51.5,29.73,East,82,22.0,32.0,89,0.11,,---,0.31,0.00,VWS V14.00,2013-06-11 09:08:00,
2013-06-11 05:13:00,54.6,51.4,29.72,East,83,22.0,32.0,89,0.12,,---,0.32,0.00,VWS V14.00,2013-06-11 09:13:00,
2013-06-11 05:18:00,54.6,51.4,29.72,NE,51,25.0,32.0,89,0.12,,---,0.33,0.00,VWS V14.00,2013-06-11 09:18:00,
2013-06-11 05:23:00,54.7,52.4,29.72,ESE,112,10.0,32.0,92,0.12,,---,0.33,0.00,VWS V14.00,2013-06-11 09:23:00,
2013-06-11 05:28:00,54.6,51.4,29.72,ESE,105,22.0,32.0,89,0.12,,---,0.33,0.00,VWS V14.00,2013-06-11 09:28:00,
2013-06-11 05:30:00,57.2,55.2,30.15,WNW,301,0.0,2.0,93,0.00,,---,0.00,207.00,VWS V14.00,2013-06-11 09:30:00,
2013-06-11 05:33:00,54.5,51.3,29.71,ESE,107,22.0,32.0,89,0.13,,---,0.34,0.00,VWS V14.00,2013-06-11 09:33:00,
2013-06-11 05:38:00,54.5,51.3,29.71,East,84,20.0,32.0,89,0.13,,---,0.34,5.00,VWS V14.00,2013-06-11 09:38:00,
2013-06-11 05:43:00,54.5,51.3,29.70,East,89,22.0,32.0,89,0.13,,---,0.34,9.00,VWS V14.00,2013-06-11 09:43:00,
2013-06-11 05:48:00,54.5,51.3,29.70,ESE,116,9.0,24.0,89,0.12,,---,0.35,9.00,VWS V14.00,2013-06-11 09:48:00,
2013-06-11 05:53:00,54.5,51.3,29.70,ESE,103,16.0,27.0,89,0.12,,---,0.35,11.00,VWS V14.00,2013-06-11 09:53:00,
2013-06-11 05:58:00,54.5,51.3,29.70,East,90,22.0,27.0,89,0.13,,---,0.36,12.00,VWS V14.00,2013-06-11 09:58:00,
2013-06-11 06:00:00,62.2,54.5,30.14,SSE,155,2.0,3.0,76,0.00,,---,0.00,236.00,VWS V14.00,2013-06-11 10:00:00,
2013-06-11 06:04:00,54.5,51.3,29.70,SE,125,10.0,27.0,89,0.13,,---,0.36,12.00,VWS V14.00,2013-06-11 10:04:00,
2013-06-11 06:09:00,54.5,51.3,29.69,SE,126,8.0,33.0,89,0.14,,---,0.37,16.00,VWS V14.00,2013-06-11 10:09:00,
2013-06-11 06:14:00,54.5,51.3,29.69,ESE,103,8.0,33.0,89,0.14,,---,0.37,16.00,VWS V14.00,2013-06-11 10:14:00,
2013-06-11 06:19:00,54.5,51.3,29.69,ESE,111,16.0,26.0,89,0.06,,---,0.38,25.00,VWS V14.00,2013-06-11 10:19:00,
2013-06-11 06:24:00,54.4,51.2,29.69,ESE,106,27.0,27.0,89,0.06,,---,0.38,26.00,VWS V14.00,2013-06-11 10:24:00,
2013-06-11 06:29:00,54.4,51.5,29.69,East,86,16.0,27.0,90,0.07,,---,0.39,26.00,VWS V14.00,2013-06-11 10:29:00,
2013-06-11 06:30:00,64.7,54.7,30.14,East,92,6.0,8.0,70,0.00,,---,0.00,420.00,VWS V14.00,2013-06-11 10:30:00,
2013-06-11 06:34:00,54.4,51.2,29.69,ESE,115,5.0,27.0,89,0.07,,---,0.39,26.00,VWS V14.00,2013-06-11 10:34:00,
2013-06-11 06:39:00,54.4,51.5,29.69,East,84,11.0,27.0,90,0.07,,---,0.39,30.00,VWS V14.00,2013-06-11 10:39:00,
2013-06-11 06:44:00,54.3,51.4,29.69,East,100,15.0,27.0,90,0.07,,---,0.39,37.00,VWS V14.00,2013-06-11 10:44:00,
2013-06-11 06:49:00,54.2,51.0,29.69,ESE,105,15.0,26.0,89,0.05,,---,0.40,28.00,VWS V14.00,2013-06-11 10:49:00,
2013-06-11 06:54:00,54.1,50.9,29.69,ESE,121,7.0,27.0,89,0.05,,---,0.40,25.00,VWS V14.00,2013-06-11 10:54:00,
2013-06-11 06:59:00,54.1,50.9,29.69,ESE,106,11.0,29.0,89,0.06,,---,0.41,33.00,VWS V14.00,2013-06-11 10:59:00,
2013-06-11 07:00:00,65.8,54.5,30.14,ESE,111,2.0,9.0,67,0.00,,---,0.00,394.00,VWS V14.00,2013-06-11 11:00:00,
2013-06-11 07:04:00,54.0,50.8,29.69,East,95,23.0,29.0,89,0.06,,---,0.41,39.00,VWS V14.00,2013-06-11 11:04:00,
2013-06-11 07:09:00,53.9,50.7,29.69,ESE,106,18.0,32.0,89,0.07,,---,0.42,47.00,VWS V14.00,2013-06-11 11:09:00,
2013-06-11 07:14:00,53.8,50.6,29.68,ESE,105,22.0,32.0,89,0.08,,---,0.43,51.00,VWS V14.00,2013-06-11 11:14:00,
2013-06-11 07:19:00,53.7,50.2,29.68,East,100,16.0,35.0,88,0.05,,---,0.43,58.00,VWS V14.00,2013-06-11 11:19:00,
2013-06-11 07:24:00,53.6,50.4,29.68,ESE,116,18.0,35.0,89,0.05,,---,0.43,62.00,VWS V14.00,2013-06-11 11:24:00,
2013-06-11 07:29:00,53.4,50.2,29.68,East,97,19.0,35.0,89,0.06,,---,0.44,83.00,VWS V14.00,2013-06-11 11:29:00,
2013-06-11 07:30:00,65.2,54.8,30.13,ESE,109,5.0,7.0,69,0.00,,---,0.00,309.00,VWS V14.00,2013-06-11 11:30:00,
2013-06-11 07:34:00,53.3,50.2,29.68,East,94,17.0,35.0,89,0.06,,---,0.44,79.00,VWS V14.00,2013-06-11 11:34:00,
2013-06-11 07:39:00,53.2,50.0,29.67,East,90,24.0,35.0,89,0.06,,---,0.44,63.00,VWS V14.00,2013-06-11 11:39:00,
2013-06-11 07:44:00,53.1,50.0,29.68,East,93,9.0,35.0,89,0.06,,---,0.44,49.00,VWS V14.00,2013-06-11 11:44:00,
2013-06-11 07:49:00,53.2,50.0,29.68,East,99,15.0,24.0,89,0.06,,---,0.45,51.00,VWS V14.00,2013-06-11 11:49:00,
2013-06-11 07:54:00,53.1,50.0,29.69,ESE,121,13.0,24.0,89,0.06,,---,0.45,58.00,VWS V14.00,2013-06-11 11:54:00,
2013-06-11 07:59:00,53.1,50.0,29.69,ESE,118,9.0,24.0,89,0.07,,---,0.46,67.00,VWS V14.00,2013-06-11 11:59:00,
2013-06-11 08:00:00,65.2,55.6,30.13,South,170,2.0,7.0,71,0.00,,---,0.00,364.00,VWS V14.00,2013-06-11 12:00:00,
2013-06-11 08:04:00,53.1,50.0,29.69,ESE,121,5.0,24.0,89,0.07,,---,0.46,72.00,VWS V14.00,2013-06-11 12:04:00,
2013-06-11 08:09:00,53.1,50.0,29.69,ESE,109,12.0,24.0,89,0.07,,---,0.46,69.00,VWS V14.00,2013-06-11 12:09:00,
2013-06-11 08:14:00,53.0,50.2,29.69,ESE,117,4.0,24.0,90,0.08,,---,0.47,77.00,VWS V14.00,2013-06-11 12:14:00,
2013-06-11 08:19:00,53.1,50.2,29.69,ESE,106,11.0,16.0,90,0.04,,---,0.47,120.00,VWS V14.00,2013-06-11 12:19:00,
2013-06-11 08:24:00,53.1,50.2,29.69,NE,49,6.0,17.0,90,0.04,,---,0.47,114.00,VWS V14.00,2013-06-11 12:24:00,
2013-06-11 08:29:00,53.1,50.2,29.68,ESE,102,8.0,23.0,90,0.05,,---,0.48,113.00,VWS V14.00,2013-06-11 12:29:00,
2013-06-11 08:30:00,66.2,54.9,30.13,South,177,0.0,6.0,67,0.00,,---,0.00,438.00,VWS V14.00,2013-06-11 12:30:00,
2013-06-11 08:34:00,53.1,50.2,29.68,ESE,107,11.0,23.0,90,0.05,,---,0.48,121.00,VWS V14.00,2013-06-11 12:34:00,
2013-06-11 08:39:00,53.1,50.2,29.68,East,93,13.0,24.0,90,0.06,,---,0.49,146.00,VWS V14.00,2013-06-11 12:39:00,
2013-06-11 08:44:00,53.1,50.2,29.68,East,85,10.0,24.0,90,0.06,,---,0.49,183.00,VWS V14.00,2013-06-11 12:44:00,
2013-06-11 08:49:00,53.3,50.5,29.68,East,80,9.0,18.0,90,0.05,,---,0.49,155.00,VWS V14.00,2013-06-11 12:49:00,
2013-06-11 08:54:00,53.3,50.5,29.68,ESE,105,12.0,21.0,90,0.06,,---,0.50,132.00,VWS V14.00,2013-06-11 12:54:00,
2013-06-11 08:59:00,53.4,50.5,29.68,ENE,73,22.0,22.0,90,0.06,,---,0.50,162.00,VWS V14.00,2013-06-11 12:59:00,
2013-06-11 09:00:00,67.0,53.6,30.12,South,178,6.0,6.0,62,0.00,,---,0.00,434.00,VWS V14.00,2013-06-11 13:00:00,
2013-06-11 09:04:00,53.4,50.5,29.68,ESE,123,9.0,23.0,90,0.07,,---,0.51,178.00,VWS V14.00,2013-06-11 13:04:00,
2013-06-11 09:09:00,53.5,50.6,29.68,East,84,11.0,23.0,90,0.07,,---,0.51,151.00,VWS V14.00,2013-06-11 13:09:00,
2013-06-11 09:14:00,53.5,50.6,29.67,East,96,11.0,23.0,90,0.07,,---,0.51,144.00,VWS V14.00,2013-06-11 13:14:00,
2013-06-11 09:19:00,53.6,50.7,29.67,ESE,105,5.0,17.0,90,0.04,,---,0.51,151.00,VWS V14.00,2013-06-11 13:19:00,
2013-06-11 09:24:00,53.6,50.4,29.67,East,88,11.0,19.0,89,0.04,,---,0.51,158.00,VWS V14.00,2013-06-11 13:24:00,
2013-06-11 09:29:00,53.6,50.4,29.67,ESE,105,5.0,19.0,89,0.05,,---,0.52,134.00,VWS V14.00,2013-06-11 13:29:00,
2013-06-11 09:30:00,67.7,53.3,30.12,East,96,5.0,10.0,60,0.00,,---,0.00,506.00,VWS V14.00,2013-06-11 13:30:00,
2013-06-11 09:34:00,53.7,50.8,29.67,ESE,119,0.0,19.0,90,0.06,,---,0.53,134.00,VWS V14.00,2013-06-11 13:34:00,
2013-06-11 09:39:00,53.7,50.8,29.67,ESE,116,4.0,19.0,90,0.06,,---,0.53,171.00,VWS V14.00,2013-06-11 13:39:00,
2013-06-11 09:44:00,53.7,50.8,29.67,SE,128,6.0,19.0,90,0.07,,---,0.54,181.00,VWS V14.00,2013-06-11 13:44:00,
2013-06-11 09:49:00,53.9,51.0,29.67,East,84,8.0,15.0,90,0.05,,---,0.54,199.00,VWS V14.00,2013-06-11 13:49:00,
2013-06-11 09:54:00,54.0,51.1,29.66,ESE,114,9.0,15.0,90,0.05,,---,0.54,200.00,VWS V14.00,2013-06-11 13:54:00,
2013-06-11 09:59:00,54.0,50.8,29.66,East,93,8.0,15.0,89,0.05,,---,0.54,190.00,VWS V14.00,2013-06-11 13:59:00,
2013-06-11 10:00:00,68.5,52.2,30.11,ESE,119,3.0,12.0,56,0.00,,---,0.00,471.00,VWS V14.00,2013-06-11 14:00:00,
2013-06-11 10:04:00,54.0,50.8,29.66,ENE,72,3.0,15.0,89,0.05,,---,0.54,167.00,VWS V14.00,2013-06-11 14:04:00,
2013-06-11 10:09:00,54.1,50.9,29.66,East,83,13.0,15.0,89,0.05,,---,0.54,146.00,VWS V14.00,2013-06-11 14:09:00,
2013-06-11 10:14:00,54.0,50.8,29.66,ESE,112,10.0,15.0,89,0.06,,---,0.55,121.00,VWS V14.00,2013-06-11 14:14:00,
2013-06-11 10:19:00,54.0,50.8,29.66,East,90,16.0,16.0,89,0.04,,---,0.55,134.00,VWS V14.00,2013-06-11 14:19:00,
2013-06-11 10:24:00,54.1,50.9,29.66,SE,126,5.0,16.0,89,0.04,,---,0.55,176.00,VWS V14.00,2013-06-11 14:24:00,
2013-06-11 10:29:00,54.1,50.9,29.66,South,180,1.0,16.0,89,0.04,,---,0.55,206.00,VWS V14.00,2013-06-11 14:29:00,
2013-06-11 10:30:00,68.7,51.9,30.10,SE,137,5.0,11.0,55,0.00,,---,0.00,476.00,VWS V14.00,2013-06-11 14:30:00,
2013-06-11 10:34:00,54.2,51.0,29.66,ESE,119,4.0,16.0,89,0.04,,---,0.55,195.00,VWS V14.00,2013-06-11 14:34:00,
2013-06-11 10:39:00,54.3,51.1,29.66,South,181,4.0,16.0,89,0.04,,---,0.55,193.00,VWS V14.00,2013-06-11 14:39:00,
2013-06-11 10:44:00,54.4,51.2,29.66,SE,134,5.0,16.0,89,0.04,,---,0.55,211.00,VWS V14.00,2013-06-11 14:44:00,
2013-06-11 10:49:00,54.5,51.3,29.66,SSE,148,7.0,12.0,89,0.01,,---,0.55,186.00,VWS V14.00,2013-06-11 14:49:00,
2013-06-11 10:54:00,54.5,51.3,29.65,SSW,212,5.0,13.0,89,0.01,,---,0.55,179.00,VWS V14.00,2013-06-11 14:54:00,
2013-06-11 11:00:00,54.6,51.4,29.65,SE,126,5.0,13.0,89,0.02,,---,0.56,209.00,VWS V14.00,2013-06-11 15:00:00,
2013-06-11 11:04:00,54.7,51.5,29.66,ESE,121,3.0,13.0,89,0.03,,---,0.57,218.00,VWS V14.00,2013-06-11 15:04:00,
2013-06-11 11:09:00,54.8,51.6,29.66,SE,134,4.0,13.0,89,0.03,,---,0.57,244.00,VWS V14.00,2013-06-11 15:09:00,
2013-06-11 11:15:00,54.9,51.7,29.65,East,101,10.0,13.0,89,0.03,,---,0.57,250.00,VWS V14.00,2013-06-11 15:15:00,
2013-06-11 11:20:00,55.0,51.8,29.65,East,99,2.0,16.0,89,0.02,,---,0.57,232.00,VWS V14.00,2013-06-11 15:20:00,
2013-06-11 11:25:00,55.0,51.8,29.65,South,169,2.0,16.0,89,0.02,,---,0.57,213.00,VWS V14.00,2013-06-11 15:25:00,
2013-06-11 11:30:00,55.0,51.8,29.65,ENE,76,2.0,16.0,89,0.02,,---,0.57,153.00,VWS V14.00,2013-06-11 15:30:00,
2013-06-11 11:35:00,54.8,51.6,29.65,SE,127,4.0,16.0,89,0.02,,---,0.57,121.00,VWS V14.00,2013-06-11 15:35:00,
2013-06-11 11:40:00,54.7,51.5,29.65,SSE,154,4.0,16.0,89,0.02,,---,0.57,155.00,VWS V14.00,2013-06-11 15:40:00,
2013-06-11 11:45:00,54.6,51.4,29.65,East,90,9.0,9.0,89,0.02,,---,0.57,199.00,VWS V14.00,2013-06-11 15:45:00,
2013-06-11 11:50:00,54.7,51.5,29.65,East,84,2.0,9.0,89,0.03,,---,0.58,162.00,VWS V14.00,2013-06-11 15:50:00,
2013-06-11 11:55:00,54.7,51.5,29.65,East,79,3.0,15.0,89,0.04,,---,0.59,156.00,VWS V14.00,2013-06-11 15:55:00,
2013-06-11 12:00:00,54.7,52.4,29.65,ESE,102,12.0,15.0,92,0.04,,---,0.59,181.00,VWS V14.00,2013-06-11 16:00:00,
2013-06-11 12:05:00,54.7,51.5,29.65,SSE,150,3.0,15.0,89,0.04,,---,0.59,146.00,VWS V14.00,2013-06-11 16:05:00,
2013-06-11 12:10:00,54.6,51.4,29.65,ESE,105,8.0,15.0,89,0.04,,---,0.59,148.00,VWS V14.00,2013-06-11 16:10:00,
2013-06-11 12:15:00,54.7,51.5,29.65,ESE,117,4.0,8.0,89,0.02,,---,0.59,144.00,VWS V14.00,2013-06-11 16:15:00,
2013-06-11 12:20:00,54.7,51.5,29.65,East,93,6.0,16.0,89,0.03,,---,0.60,192.00,VWS V14.00,2013-06-11 16:20:00,
2013-06-11 12:25:00,54.7,51.8,29.64,ESE,103,4.0,16.0,90,0.05,,---,0.62,214.00,VWS V14.00,2013-06-11 16:25:00,
2013-06-11 12:30:00,54.7,51.8,29.64,East,94,7.0,16.0,90,0.06,,---,0.63,190.00,VWS V14.00,2013-06-11 16:30:00,
2013-06-11 12:36:00,54.6,51.7,29.64,East,84,3.0,16.0,90,0.06,,---,0.63,134.00,VWS V14.00,2013-06-11 16:36:00,
2013-06-11 12:41:00,54.6,51.7,29.64,East,94,9.0,18.0,90,0.07,,---,0.64,135.00,VWS V14.00,2013-06-11 16:41:00,
2013-06-11 12:46:00,54.6,51.7,29.64,ESE,105,3.0,9.0,90,0.08,,---,0.65,123.00,VWS V14.00,2013-06-11 16:46:00,
2013-06-11 12:51:00,54.7,51.8,29.64,East,90,8.0,14.0,90,0.08,,---,0.65,114.00,VWS V14.00,2013-06-11 16:51:00,
2013-06-11 12:56:00,54.7,51.5,29.63,East,96,5.0,14.0,89,0.08,,---,0.65,123.00,VWS V14.00,2013-06-11 16:56:00,
2013-06-11 13:00:00,68.5,49.7,30.05,East,93,6.0,13.0,51,0.00,,---,0.00,357.00,VWS V14.00,2013-06-11 17:00:00,
2013-06-11 13:01:00,54.6,51.4,29.63,ENE,76,12.0,15.0,89,0.09,,---,0.66,127.00,VWS V14.00,2013-06-11 17:01:00,
2013-06-11 13:06:00,54.7,51.5,29.62,ESE,108,8.0,16.0,89,0.09,,---,0.66,114.00,VWS V14.00,2013-06-11 17:06:00,
2013-06-11 13:11:00,54.7,51.5,29.62,ESE,121,7.0,21.0,89,0.09,,---,0.66,116.00,VWS V14.00,2013-06-11 17:11:00,
2013-06-11 13:16:00,54.8,51.6,29.62,ENE,71,8.0,10.0,89,0.07,,---,0.66,141.00,VWS V14.00,2013-06-11 17:16:00,
2013-06-11 13:21:00,54.8,51.6,29.62,ESE,111,19.0,19.0,89,0.07,,---,0.66,236.00,VWS V14.00,2013-06-11 17:21:00,
2013-06-11 13:26:00,54.9,52.0,29.62,ESE,105,12.0,19.0,90,0.07,,---,0.66,287.00,VWS V14.00,2013-06-11 17:26:00,
2013-06-11 13:30:00,68.2,51.4,30.04,ESE,116,2.0,11.0,55,0.00,,---,0.00,276.00,VWS V14.00,2013-06-11 17:30:00,
2013-06-11 13:31:00,55.1,52.2,29.62,East,92,9.0,19.0,90,0.07,,---,0.66,299.00,VWS V14.00,2013-06-11 17:31:00,
2013-06-11 13:36:00,55.3,52.1,29.61,East,80,5.0,19.0,89,0.07,,---,0.66,209.00,VWS V14.00,2013-06-11 17:36:00,
2013-06-11 13:41:00,55.2,52.0,29.61,East,81,5.0,22.0,89,0.07,,---,0.66,193.00,VWS V14.00,2013-06-11 17:41:00,
2013-06-11 13:46:00,55.2,52.0,29.61,SE,132,13.0,16.0,89,0.01,,---,0.66,197.00,VWS V14.00,2013-06-11 17:46:00,
2013-06-11 13:51:00,55.2,52.0,29.61,ESE,108,10.0,19.0,89,0.01,,---,0.66,229.00,VWS V14.00,2013-06-11 17:51:00,
2013-06-11 13:56:00,55.3,52.1,29.61,East,97,9.0,19.0,89,0.01,,---,0.66,316.00,VWS V14.00,2013-06-11 17:56:00,
2013-06-11 14:00:00,67.5,51.8,30.04,SSE,165,1.0,9.0,57,0.00,,---,0.00,220.00,VWS V14.00,2013-06-11 18:00:00,
2013-06-11 14:02:00,55.6,52.4,29.61,ESE,111,12.0,19.0,89,0.01,,---,0.66,255.00,VWS V14.00,2013-06-11 18:02:00,
2013-06-11 14:07:00,55.7,52.2,29.61,ESE,104,10.0,19.0,88,0.01,,---,0.66,232.00,VWS V14.00,2013-06-11 18:07:00,
2013-06-11 14:12:00,55.8,52.3,29.61,ESE,109,3.0,19.0,88,0.01,,---,0.66,251.00,VWS V14.00,2013-06-11 18:12:00,
2013-06-11 14:17:00,55.8,52.3,29.60,East,94,8.0,9.0,88,0.00,,---,0.66,216.00,VWS V14.00,2013-06-11 18:17:00,
2013-06-11 14:22:00,55.8,52.3,29.60,East,94,8.0,17.0,88,0.00,,---,0.66,221.00,VWS V14.00,2013-06-11 18:22:00,
2013-06-11 14:27:00,55.8,52.3,29.60,ESE,108,10.0,17.0,88,0.00,,---,0.66,221.00,VWS V14.00,2013-06-11 18:27:00,
2013-06-11 14:30:00,66.2,52.8,30.03,SE,146,3.0,9.0,62,0.00,,---,0.00,146.00,VWS V14.00,2013-06-11 18:30:00,
2013-06-11 14:32:00,55.9,52.4,29.60,East,96,10.0,17.0,88,0.00,,---,0.66,279.00,VWS V14.00,2013-06-11 18:32:00,
2013-06-11 14:37:00,55.9,52.4,29.59,ESE,107,10.0,17.0,88,0.00,,---,0.66,338.00,VWS V14.00,2013-06-11 18:37:00,
2013-06-11 14:42:00,55.9,52.4,29.59,East,94,3.0,17.0,88,0.00,,---,0.66,394.00,VWS V14.00,2013-06-11 18:42:00,
2013-06-11 14:47:00,56.1,52.6,29.59,East,82,13.0,20.0,88,0.00,,---,0.66,352.00,VWS V14.00,2013-06-11 18:47:00,
2013-06-11 14:52:00,56.1,52.3,29.59,ESE,103,13.0,20.0,87,0.00,,---,0.66,290.00,VWS V14.00,2013-06-11 18:52:00,
2013-06-11 14:57:00,56.0,52.2,29.58,East,84,16.0,23.0,87,0.00,,---,0.66,399.00,VWS V14.00,2013-06-11 18:57:00,
2013-06-11 15:00:00,64.1,54.5,30.03,South,173,1.0,10.0,71,0.00,,---,0.00,97.00,VWS V14.00,2013-06-11 19:00:00,
2013-06-11 15:02:00,56.2,52.4,29.58,ESE,103,10.0,23.0,87,0.00,,---,0.66,403.00,VWS V14.00,2013-06-11 19:02:00,
2013-06-11 15:07:00,56.3,52.5,29.58,ESE,117,10.0,23.0,87,0.00,,---,0.66,499.00,VWS V14.00,2013-06-11 19:07:00,
2013-06-11 15:12:00,56.6,52.8,29.58,East,96,5.0,23.0,87,0.00,,---,0.66,417.00,VWS V14.00,2013-06-11 19:12:00,
2013-06-11 15:17:00,56.7,52.9,29.58,East,87,7.0,19.0,87,0.00,,---,0.66,387.00,VWS V14.00,2013-06-11 19:17:00,
2013-06-11 15:22:00,56.7,52.9,29.58,ESE,103,14.0,19.0,87,0.00,,---,0.66,302.00,VWS V14.00,2013-06-11 19:22:00,
2013-06-11 15:27:00,56.6,52.5,29.58,ESE,115,12.0,24.0,86,0.01,,---,0.67,330.00,VWS V14.00,2013-06-11 19:27:00,
2013-06-11 15:30:00,62.5,55.6,30.01,SSE,163,3.0,6.0,78,0.00,,---,0.00,95.00,VWS V14.00,2013-06-11 19:30:00,
2013-06-11 15:32:00,56.7,52.9,29.58,ESE,112,11.0,24.0,87,0.01,,---,0.67,320.00,VWS V14.00,2013-06-11 19:32:00,
2013-06-11 15:37:00,56.8,53.0,29.58,East,80,16.0,24.0,87,0.01,,---,0.67,264.00,VWS V14.00,2013-06-11 19:37:00,
2013-06-11 15:42:00,56.7,52.6,29.58,ENE,71,10.0,24.0,86,0.01,,---,0.67,287.00,VWS V14.00,2013-06-11 19:42:00,
2013-06-11 15:47:00,56.8,52.7,29.57,ESE,103,5.0,14.0,86,0.01,,---,0.67,158.00,VWS V14.00,2013-06-11 19:47:00,
2013-06-11 15:52:00,56.6,52.5,29.57,East,97,8.0,22.0,86,0.01,,---,0.67,199.00,VWS V14.00,2013-06-11 19:52:00,
2013-06-11 15:57:00,56.6,52.5,29.57,SE,133,7.0,22.0,86,0.01,,---,0.67,183.00,VWS V14.00,2013-06-11 19:57:00,
2013-06-11 16:00:00,61.6,56.4,30.00,East,92,1.0,10.0,83,0.01,,---,0.01,77.00,VWS V14.00,2013-06-11 20:00:00,
2013-06-11 16:02:00,56.5,52.4,29.57,ENE,68,5.0,22.0,86,0.01,,---,0.67,149.00,VWS V14.00,2013-06-11 20:02:00,
2013-06-11 16:07:00,56.4,52.3,29.57,ESE,104,7.0,23.0,86,0.01,,---,0.67,165.00,VWS V14.00,2013-06-11 20:07:00,
2013-06-11 16:12:00,56.4,52.3,29.57,ESE,119,11.0,23.0,86,0.01,,---,0.67,185.00,VWS V14.00,2013-06-11 20:12:00,
2013-06-11 16:17:00,56.3,52.5,29.56,East,95,8.0,18.0,87,0.01,,---,0.67,195.00,VWS V14.00,2013-06-11 20:17:00,
2013-06-11 16:23:00,56.4,52.6,29.56,East,90,6.0,18.0,87,0.01,,---,0.67,98.00,VWS V14.00,2013-06-11 20:23:00,
2013-06-11 16:28:00,56.3,52.5,29.56,East,101,3.0,19.0,87,0.01,,---,0.67,79.00,VWS V14.00,2013-06-11 20:28:00,
2013-06-11 16:30:00,60.8,56.6,30.00,ESE,104,9.0,11.0,86,0.01,,---,0.01,47.00,VWS V14.00,2013-06-11 20:30:00,
2013-06-11 16:33:00,56.0,52.2,29.56,ESE,107,14.0,19.0,87,0.01,,---,0.67,90.00,VWS V14.00,2013-06-11 20:33:00,
2013-06-11 16:38:00,55.8,52.3,29.56,ESE,117,4.0,22.0,88,0.01,,---,0.67,109.00,VWS V14.00,2013-06-11 20:38:00,
2013-06-11 16:43:00,55.7,52.2,29.55,ESE,121,3.0,22.0,88,0.01,,---,0.67,76.00,VWS V14.00,2013-06-11 20:43:00,
2013-06-11 16:48:00,55.5,52.0,29.55,ESE,105,4.0,14.0,88,0.00,,---,0.67,54.00,VWS V14.00,2013-06-11 20:48:00,
2013-06-11 16:53:00,55.5,52.3,29.55,ESE,103,4.0,14.0,89,0.00,,---,0.67,51.00,VWS V14.00,2013-06-11 20:53:00,
2013-06-11 16:58:00,55.5,52.3,29.55,East,84,2.0,14.0,89,0.00,,---,0.67,69.00,VWS V14.00,2013-06-11 20:58:00,
2013-06-11 17:00:00,60.0,54.5,30.00,ESE,115,3.0,11.0,82,0.01,,---,0.01,28.00,VWS V14.00,2013-06-11 21:00:00,
2013-06-11 17:03:00,55.4,52.2,29.55,East,98,5.0,14.0,89,0.00,,---,0.67,139.00,VWS V14.00,2013-06-11 21:03:00,
2013-06-11 17:08:00,55.5,52.3,29.55,East,94,2.0,14.0,89,0.01,,---,0.68,156.00,VWS V14.00,2013-06-11 21:08:00,
2013-06-11 17:13:00,55.6,52.4,29.55,SE,125,6.0,16.0,89,0.01,,---,0.68,86.00,VWS V14.00,2013-06-11 21:13:00,
2013-06-11 17:18:00,55.5,52.3,29.55,ESE,107,5.0,9.0,89,0.01,,---,0.68,70.00,VWS V14.00,2013-06-11 21:18:00,
2013-06-11 17:23:00,55.5,52.3,29.54,ESE,121,11.0,11.0,89,0.01,,---,0.68,63.00,VWS V14.00,2013-06-11 21:23:00,
2013-06-11 17:28:00,55.5,52.3,29.55,East,89,8.0,17.0,89,0.01,,---,0.68,53.00,VWS V14.00,2013-06-11 21:28:00,
2013-06-11 17:30:00,59.1,55.2,29.98,ESE,110,4.0,16.0,87,0.03,,---,0.04,11.00,VWS V14.00,2013-06-11 21:30:00,
2013-06-11 17:33:00,55.4,52.2,29.55,East,88,8.0,17.0,89,0.01,,---,0.68,47.00,VWS V14.00,2013-06-11 21:33:00,
2013-06-11 17:38:00,55.3,52.1,29.54,East,82,10.0,17.0,89,0.02,,---,0.69,65.00,VWS V14.00,2013-06-11 21:38:00,
2013-06-11 17:43:00,55.2,52.0,29.54,ESE,110,5.0,17.0,89,0.02,,---,0.69,67.00,VWS V14.00,2013-06-11 21:43:00,
2013-06-11 17:48:00,55.3,52.1,29.54,East,86,5.0,16.0,89,0.02,,---,0.69,47.00,VWS V14.00,2013-06-11 21:48:00,
2013-06-11 17:53:00,55.2,52.3,29.54,SSE,154,1.0,16.0,90,0.03,,---,0.70,39.00,VWS V14.00,2013-06-11 21:53:00,
2013-06-11 17:58:00,55.2,52.3,29.54,SE,134,2.0,16.0,90,0.04,,---,0.71,42.00,VWS V14.00,2013-06-11 21:58:00,
2013-06-11 18:00:00,58.6,54.8,29.97,East,101,10.0,17.0,87,0.05,,---,0.06,0.00,VWS V14.00,2013-06-11 22:00:00,
2013-06-11 18:03:00,55.1,52.2,29.53,ESE,111,3.0,16.0,90,0.05,,---,0.72,44.00,VWS V14.00,2013-06-11 22:03:00,
2013-06-11 18:08:00,55.0,52.1,29.53,ESE,117,3.0,16.0,90,0.06,,---,0.73,37.00,VWS V14.00,2013-06-11 22:08:00,
2013-06-11 18:13:00,55.0,52.1,29.53,ESE,111,4.0,16.0,90,0.08,,---,0.75,32.00,VWS V14.00,2013-06-11 22:13:00,
2013-06-11 18:18:00,55.0,52.1,29.53,ENE,67,0.0,9.0,90,0.07,,---,0.75,33.00,VWS V14.00,2013-06-11 22:18:00,
2013-06-11 18:23:00,55.0,52.1,29.54,East,86,5.0,9.0,90,0.07,,---,0.75,33.00,VWS V14.00,2013-06-11 22:23:00,
2013-06-11 18:28:00,55.0,52.1,29.54,ESE,118,1.0,10.0,90,0.08,,---,0.76,32.00,VWS V14.00,2013-06-11 22:28:00,
2013-06-11 18:30:00,58.2,54.7,29.97,ESE,103,8.0,18.0,88,0.06,,---,0.07,0.00,VWS V14.00,2013-06-11 22:30:00,
2013-06-11 18:33:00,55.0,52.1,29.54,ESE,115,2.0,10.0,90,0.08,,---,0.76,33.00,VWS V14.00,2013-06-11 22:33:00,
2013-06-11 18:38:00,55.0,52.1,29.54,East,89,5.0,10.0,90,0.09,,---,0.77,40.00,VWS V14.00,2013-06-11 22:38:00,
2013-06-11 18:43:00,55.0,52.1,29.54,SSE,151,0.0,10.0,90,0.10,,---,0.78,37.00,VWS V14.00,2013-06-11 22:43:00,
2013-06-11 18:48:00,55.0,52.1,29.54,ESE,108,4.0,11.0,90,0.09,,---,0.78,33.00,VWS V14.00,2013-06-11 22:48:00,
2013-06-11 18:53:00,55.0,52.1,29.54,SE,126,5.0,11.0,90,0.09,,---,0.78,39.00,VWS V14.00,2013-06-11 22:53:00,
2013-06-11 18:58:00,55.0,52.1,29.54,East,94,6.0,13.0,90,0.09,,---,0.78,28.00,VWS V14.00,2013-06-11 22:58:00,
2013-06-11 19:00:00,58.3,55.1,29.95,East,100,9.0,12.0,89,0.05,,---,0.09,0.00,VWS V14.00,2013-06-11 23:00:00,
2013-06-11 19:03:00,55.1,52.2,29.54,SE,145,3.0,13.0,90,0.09,,---,0.78,23.00,VWS V14.00,2013-06-11 23:03:00,
2013-06-11 19:08:00,55.1,52.2,29.54,East,101,6.0,13.0,90,0.09,,---,0.78,18.00,VWS V14.00,2013-06-11 23:08:00,
2013-06-11 19:13:00,55.0,52.1,29.55,SSE,151,0.0,13.0,90,0.10,,---,0.79,14.00,VWS V14.00,2013-06-11 23:13:00,
2013-06-11 19:18:00,55.0,52.1,29.55,ESE,122,1.0,7.0,90,0.04,,---,0.79,14.00,VWS V14.00,2013-06-11 23:18:00,
2013-06-11 19:23:00,54.9,52.0,29.55,ESE,123,2.0,7.0,90,0.04,,---,0.79,12.00,VWS V14.00,2013-06-11 23:23:00,
2013-06-11 19:28:00,54.9,52.0,29.54,NE,55,2.0,7.0,90,0.04,,---,0.79,12.00,VWS V14.00,2013-06-11 23:28:00,
2013-06-11 19:30:00,58.4,55.2,29.94,East,96,9.0,19.0,89,0.03,,---,0.09,0.00,VWS V14.00,2013-06-11 23:30:00,
2013-06-11 19:33:00,54.9,52.0,29.54,SSE,152,1.0,7.0,90,0.05,,---,0.80,12.00,VWS V14.00,2013-06-11 23:33:00,
2013-06-11 19:38:00,54.8,52.2,29.54,SSE,156,3.0,7.0,91,0.05,,---,0.80,14.00,VWS V14.00,2013-06-11 23:38:00,
2013-06-11 19:43:00,54.8,52.2,29.54,South,171,0.0,7.0,91,0.05,,---,0.80,14.00,VWS V14.00,2013-06-11 23:43:00,
2013-06-11 19:48:00,54.8,52.2,29.53,SSE,165,0.0,3.0,91,0.02,,---,0.80,14.00,VWS V14.00,2013-06-11 23:48:00,
2013-06-11 19:53:00,54.8,52.2,29.53,SSW,195,2.0,6.0,91,0.02,,---,0.80,11.00,VWS V14.00,2013-06-11 23:53:00,
2013-06-11 19:58:00,54.8,52.2,29.54,South,181,1.0,6.0,91,0.02,,---,0.80,7.00,VWS V14.00,2013-06-11 23:58:00,
2013-06-11 20:00:00,57.6,54.4,29.93,ENE,72,11.0,22.0,89,0.04,,---,0.11,0.00,VWS V14.00,2013-06-12 00:00:00,
2013-06-11 20:03:00,54.8,52.2,29.54,South,181,0.0,6.0,91,0.02,,---,0.80,5.00,VWS V14.00,2013-06-12 00:03:00,
2013-06-11 20:08:00,54.7,52.1,29.54,South,181,0.0,6.0,91,0.02,,---,0.80,0.00,VWS V14.00,2013-06-12 00:08:00,
2013-06-11 20:13:00,54.7,52.1,29.53,ESE,123,0.0,6.0,91,0.03,,---,0.81,0.00,VWS V14.00,2013-06-12 00:13:00,
2013-06-11 20:18:00,54.7,52.1,29.53,South,189,0.0,0.0,91,0.02,,---,0.81,0.00,VWS V14.00,2013-06-12 00:18:00,
2013-06-11 20:23:00,54.7,52.1,29.53,West,259,0.0,0.0,91,0.02,,---,0.81,0.00,VWS V14.00,2013-06-12 00:23:00,
2013-06-11 20:28:00,54.6,52.0,29.53,WSW,253,0.0,0.0,91,0.02,,---,0.81,0.00,VWS V14.00,2013-06-12 00:28:00,
2013-06-11 20:30:00,57.1,53.6,29.92,East,93,19.0,27.0,88,0.03,,---,0.12,0.00,VWS V14.00,2013-06-12 00:30:00,
2013-06-11 20:33:00,54.6,52.0,29.53,WSW,253,0.0,0.0,91,0.02,,---,0.81,0.00,VWS V14.00,2013-06-12 00:33:00,
2013-06-11 20:38:00,54.6,52.0,29.53,ENE,68,0.0,0.0,91,0.03,,---,0.82,0.00,VWS V14.00,2013-06-12 00:38:00,
2013-06-11 20:43:00,54.6,52.0,29.53,ENE,69,0.0,0.0,91,0.04,,---,0.83,0.00,VWS V14.00,2013-06-12 00:43:00,
2013-06-11 20:48:00,54.5,51.9,29.54,ENE,69,0.0,0.0,91,0.03,,---,0.83,0.00,VWS V14.00,2013-06-12 00:48:00,
2013-06-11 20:53:00,54.5,51.9,29.54,ENE,69,0.0,0.0,91,0.04,,---,0.84,0.00,VWS V14.00,2013-06-12 00:53:00,
2013-06-11 20:58:00,54.5,51.9,29.54,ENE,71,0.0,0.0,91,0.05,,---,0.85,0.00,VWS V14.00,2013-06-12 00:58:00,
2013-06-11 21:00:00,56.7,53.5,29.91,East,101,13.0,23.0,89,0.05,,---,0.14,0.00,VWS V14.00,2013-06-12 01:00:00,
2013-06-11 21:03:00,54.5,51.9,29.54,SW,224,0.0,0.0,91,0.05,,---,0.85,0.00,VWS V14.00,2013-06-12 01:03:00,
2013-06-11 21:08:00,54.5,51.9,29.55,SSW,192,0.0,0.0,91,0.06,,---,0.86,0.00,VWS V14.00,2013-06-12 01:08:00,
2013-06-11 21:13:00,54.4,51.8,29.55,SSW,192,0.0,0.0,91,0.07,,---,0.87,0.00,VWS V14.00,2013-06-12 01:13:00,
2013-06-11 21:18:00,54.3,51.7,29.55,SSW,192,0.0,0.0,91,0.06,,---,0.87,0.00,VWS V14.00,2013-06-12 01:18:00,
2013-06-11 21:23:00,54.3,51.7,29.55,SSW,192,0.0,0.0,91,0.06,,---,0.87,0.00,VWS V14.00,2013-06-12 01:23:00,
2013-06-11 21:28:00,54.3,52.0,29.55,SSW,192,0.0,0.0,92,0.07,,---,0.88,0.00,VWS V14.00,2013-06-12 01:28:00,
2013-06-11 21:30:00,56.6,53.4,29.90,ESE,105,10.0,21.0,89,0.09,,---,0.20,0.00,VWS V14.00,2013-06-12 01:30:00,
2013-06-11 21:33:00,54.3,52.0,29.55,SSW,192,0.0,0.0,92,0.08,,---,0.89,0.00,VWS V14.00,2013-06-12 01:33:00,
2013-06-11 21:38:00,54.2,51.9,29.55,SSW,192,0.0,0.0,92,0.09,,---,0.90,0.00,VWS V14.00,2013-06-12 01:38:00,
2013-06-11 21:43:00,54.2,51.9,29.56,SSW,192,0.0,0.0,92,0.09,,---,0.90,0.00,VWS V14.00,2013-06-12 01:43:00,
2013-06-11 21:48:00,54.2,51.9,29.55,SSW,192,0.0,0.0,92,0.07,,---,0.90,0.00,VWS V14.00,2013-06-12 01:48:00,
2013-06-11 21:53:00,54.2,51.9,29.55,SSW,192,0.0,0.0,92,0.08,,---,0.91,0.00,VWS V14.00,2013-06-12 01:53:00,
2013-06-11 21:58:00,54.2,51.9,29.56,SSW,192,0.0,0.0,92,0.08,,---,0.91,0.00,VWS V14.00,2013-06-12 01:58:00,
2013-06-11 22:00:00,56.4,53.2,29.87,ESE,103,16.0,27.0,89,0.11,,---,0.23,0.00,VWS V14.00,2013-06-12 02:00:00,
2013-06-11 22:03:00,54.2,51.9,29.56,SSW,192,0.0,0.0,92,0.08,,---,0.91,0.00,VWS V14.00,2013-06-12 02:03:00,
2013-06-11 22:08:00,54.1,51.8,29.56,SSW,192,0.0,0.0,92,0.08,,---,0.91,0.00,VWS V14.00,2013-06-12 02:08:00,
2013-06-11 22:13:00,54.1,51.8,29.56,SSW,192,0.0,0.0,92,0.08,,---,0.91,0.00,VWS V14.00,2013-06-12 02:13:00,
2013-06-11 22:18:00,54.1,51.8,29.56,SSW,192,0.0,0.0,92,0.04,,---,0.91,0.00,VWS V14.00,2013-06-12 02:18:00,
2013-06-11 22:23:00,54.1,51.8,29.56,SSW,192,0.0,0.0,92,0.05,,---,0.92,0.00,VWS V14.00,2013-06-12 02:23:00,
2013-06-11 22:28:00,54.0,51.7,29.56,SSW,192,0.0,0.0,92,0.05,,---,0.92,0.00,VWS V14.00,2013-06-12 02:28:00,
2013-06-11 22:30:00,56.0,52.8,29.86,ENE,72,22.0,30.0,89,0.11,,---,0.25,0.00,VWS V14.00,2013-06-12 02:30:00,
2013-06-11 22:33:00,54.1,51.8,29.56,SSW,192,0.0,0.0,92,0.06,,---,0.93,0.00,VWS V14.00,2013-06-12 02:33:00,
2013-06-11 22:38:00,54.0,51.7,29.56,SSW,192,0.0,0.0,92,0.06,,---,0.93,0.00,VWS V14.00,2013-06-12 02:38:00,
2013-06-11 22:43:00,54.0,51.7,29.56,SSW,192,0.0,0.0,92,0.07,,---,0.94,0.00,VWS V14.00,2013-06-12 02:43:00,
2013-06-11 22:48:00,54.1,51.8,29.56,SSW,192,0.0,0.0,92,0.04,,---,0.94,0.00,VWS V14.00,2013-06-12 02:48:00,
2013-06-11 22:53:00,54.1,51.8,29.56,SSW,192,0.0,0.0,92,0.04,,---,0.94,0.00,VWS V14.00,2013-06-12 02:53:00,
2013-06-11 22:58:00,54.0,51.7,29.56,SSW,192,0.0,0.0,92,0.04,,---,0.94,0.00,VWS V14.00,2013-06-12 02:58:00,
2013-06-11 23:00:00,55.7,52.8,29.84,East,97,17.0,30.0,90,0.05,,---,0.25,0.00,VWS V14.00,2013-06-12 03:00:00,
2013-06-11 23:03:00,54.0,51.7,29.56,SSW,192,0.0,0.0,92,0.05,,---,0.95,0.00,VWS V14.00,2013-06-12 03:03:00,
2013-06-11 23:08:00,54.1,51.8,29.56,SSW,192,0.0,0.0,92,0.05,,---,0.95,0.00,VWS V14.00,2013-06-12 03:08:00,
2013-06-11 23:13:00,54.1,51.8,29.56,SSW,192,0.0,0.0,92,0.05,,---,0.95,0.00,VWS V14.00,2013-06-12 03:13:00,
2013-06-11 23:18:00,54.0,51.7,29.55,SSW,192,0.0,0.0,92,0.04,,---,0.95,0.00,VWS V14.00,2013-06-12 03:18:00,
2013-06-11 23:23:00,54.0,51.7,29.55,SSW,192,0.0,0.0,92,0.04,,---,0.95,0.00,VWS V14.00,2013-06-12 03:23:00,
2013-06-11 23:28:00,54.0,51.7,29.56,SSW,192,0.0,0.0,92,0.04,,---,0.95,0.00,VWS V14.00,2013-06-12 03:28:00,
2013-06-11 23:30:00,55.4,52.5,29.82,East,94,13.0,31.0,90,0.03,,---,0.26,0.00,VWS V14.00,2013-06-12 03:30:00,
2013-06-11 23:33:00,54.0,51.7,29.56,SSW,192,0.0,0.0,92,0.04,,---,0.95,0.00,VWS V14.00,2013-06-12 03:33:00,
2013-06-11 23:38:00,53.9,51.9,29.56,SSW,192,0.0,0.0,93,0.04,,---,0.95,0.00,VWS V14.00,2013-06-12 03:38:00,
2013-06-11 23:43:00,53.9,51.9,29.56,SSW,192,0.0,0.0,93,0.04,,---,0.95,0.00,VWS V14.00,2013-06-12 03:43:00,
2013-06-11 23:48:00,53.9,51.9,29.56,SSW,192,0.0,0.0,93,0.01,,---,0.95,0.00,VWS V14.00,2013-06-12 03:48:00,
2013-06-11 23:53:00,53.9,51.9,29.56,SSW,192,0.0,0.0,93,0.01,,---,0.95,0.00,VWS V14.00,2013-06-12 03:53:00,
2013-06-11 23:58:00,53.9,51.9,29.56,WNW,288,0.0,0.0,93,0.01,,---,0.95,0.00,VWS V14.00,2013-06-12 03:58:00,